Aline, Oklahoma
Current Conditions -  °F | °C
As of 5:10 AM on Friday 24 Oct 2014 (Local Time) from KAVK Reporting Station
Clear Clear  
Wind Chill: 57°   Ceiling: Unl
Heat Index: 57°   Visibility: 7mi
Dew Point: 57°   Wind: 7mph
Humidity: 100%   Direction: 170°S
Pressure: 30.05"   Gusts: NA
Location:  36.51°N, 98.45°W
Report Text: KAVK 241010Z AUTO 17006KT 7SM CLR 14/14 A3005 RMK AO2
Loading
Personal Weather Stations






























Interactive Weather Map
Tropical Storm Tracking
New forecast layout! Learn more

10-Day Weather Forecast

Advertisements
Track Severe Weather on mobile